Cancún International Airport
MMUN : rendu visible

Aérodrome :











RETROUVEZ-NOUS SUR...

 
LOGIN :

S'inscrire | Disclaimer

   EN    FR    IT 

 









Légende :    VFR   VFR Marginal   IFR   IFR Intensif   IFR Très Intensif
Visi : 
Plafond : 
>= 8 km
>= 3000ft
5 à 8 km
1000 à 3000 ft
1500m à 5 km
500 à 1000 ft
800 à 1500m
200 à 500 ft
< 800m
< 200 ft
Symboles :   Orages  Brouillard  Fortes neiges  Fortes précipitations  Vent > 20 kt






- Altitude de l'aérodrome : 20 ft
- Code IATA : CUN


MMUN - Cancún International

DERNIER METAR :
  • 100644Z 09005KT 7SM SKC 26/21 A3000 RMK SC

METARs EXPIRÉS :
  • 100550Z 09006KT 7SM SCT015 26/21 A3000 RMK SLP161 57003 967 8/100
  • 100455Z 10007KT 7SM SCT018 26/22 A3002 RMK 8/100

TAF TAF MMUN
Valide du 10 à 06h jusqu'au 11 à 12h UTC


100521Z 1006/1112 10007KT P6SM SCT018 TX29/1019Z TN19/1012Z
FM101800 13010KT P6SM SCT018 SCT070
BECMG 1105/1107 12008KT



MET'MAP, la Météo Aéronautique d'un coup d'oeil ! - Copyright ORBIFLY Décembre 2007 - Disclaimer

ORBIFLY MET'MAP TEAM :

Programmation & Développement : Alexandra Zaïnal
Sur une idée originale de : Baudouin d'Aumeries
Assistance à la programmation : Marc-Olivier Méhu
Soutien technique & logistique : Manuel Goepfert

Contact : metmap@orbifly.com




SOURCES & CREDITS :

   NOAA       Earth
Advisory